PWSweather.com
Personal Weather Stations
Station Observations
IVENETOL9
Brugine, BrugineIT 35020

BrugineBrugineIT 35020

Lat: 45.2975, Lon: 11.9962777

Elevation: 19

Station Type: Davis Vantage Pro2 Plus

http://www.meteobrugine.it/

Latest ConditionsUpdated 1:00:59 PM GMT+01:01 Thursday, Jun 29, 2017
Currently Today's Max Today's Min Today's Average
Temperature 80.2°F26.8°C 80.5°F26.9°C 60.7°F15.9°C 67.8°F19.9°C
Dew Point 67.0°F19.4°C 68.4°F20.2°C 58.4°F14.7°C 62.6°F17.0°C
Winds 0.4 mph SW0.6 kmh SW 3.4 mph SW5.5 kmh SW - 0.4 mph 0.6 kmh
Wind Gusts 6.0 mph9.7 kmh 10.0 mph16.1 kmh - -
Humidity 64% 92% 61% 84%
Pressure 29.59 in1002.0 mb 29.59 in1002.0 mb 29.49 in998.6 mb -
Hour Temp Dew Point Humidity Winds Wind Gusts Pressure Precip Precip Rate Daily Precip Total
01:00 PM 80.2°F26.8°C 67.0°F19.4°C 64% 0.4 mph SW0.6 kmh SW 6.0 mph9.7 kmh 29.59 in1002.0 mb - 0.00 in0.0 mm 0.00 in0.0 mm
12:46 PM 80.2°F26.8°C 66.9°F19.4°C 64% 0.3 mph S0.5 kmh S 2.0 mph3.2 kmh 29.59 in1002.0 mb - 0.00 in0.0 mm 0.00 in0.0 mm
12:30 PM 80.5°F26.9°C 65.8°F18.8°C 61% 1.9 mph SW3.1 kmh SW 6.0 mph9.7 kmh 29.59 in1002.0 mb - 0.00 in0.0 mm 0.00 in0.0 mm
12:15 PM 80.1°F26.7°C 66.8°F19.3°C 64% 1.7 mph S2.7 kmh S 7.0 mph11.3 kmh 29.59 in1002.0 mb - 0.00 in0.0 mm 0.00 in0.0 mm
12:01 PM 79.3°F26.3°C 66.1°F18.9°C 64% 1.7 mph S2.7 kmh S 7.0 mph11.3 kmh 29.59 in1002.0 mb - 0.00 in0.0 mm 0.00 in0.0 mm
11:46 AM 79.3°F26.3°C 65.6°F18.7°C 63% 3.4 mph SW5.5 kmh SW 7.0 mph11.3 kmh 29.59 in1002.0 mb - 0.00 in0.0 mm 0.00 in0.0 mm
11:31 AM 79.3°F26.3°C 65.6°F18.7°C 63% 3.2 mph SSW5.1 kmh SSW 9.0 mph14.5 kmh 29.59 in1002.0 mb - 0.00 in0.0 mm 0.00 in0.0 mm
11:16 AM 78.9°F26.1°C 66.1°F18.9°C 65% 0.8 mph SSW1.3 kmh SSW 5.0 mph8.0 kmh 29.59 in1002.0 mb - 0.00 in0.0 mm 0.00 in0.0 mm
11:00 AM 78.1°F25.6°C 65.4°F18.6°C 65% 0.3 mph S0.5 kmh S 2.0 mph3.2 kmh 29.58 in1001.7 mb - 0.00 in0.0 mm 0.00 in0.0 mm
10:45 AM 77.8°F25.4°C 67.7°F19.8°C 71% 0.8 mph SSW1.3 kmh SSW 10.0 mph16.1 kmh 29.58 in1001.7 mb - 0.00 in0.0 mm 0.00 in0.0 mm
10:31 AM 76.9°F24.9°C 67.2°F19.6°C 72% 1.6 mph S2.6 kmh S 7.0 mph11.3 kmh 29.57 in1001.4 mb - 0.00 in0.0 mm 0.00 in0.0 mm
10:16 AM 76.2°F24.6°C 67.3°F19.6°C 74% 0.1 mph SE0.2 kmh SE 1.0 mph1.6 kmh 29.57 in1001.4 mb - 0.00 in0.0 mm 0.00 in0.0 mm
10:00 AM 75.7°F24.3°C 68.4°F20.2°C 78% 0.2 mph SSW0.3 kmh SSW 2.0 mph3.2 kmh 29.57 in1001.4 mb - 0.00 in0.0 mm 0.00 in0.0 mm
09:46 AM 74.4°F23.6°C 67.5°F19.7°C 79% 2.3 mph SSW3.7 kmh SSW 6.0 mph9.7 kmh 29.57 in1001.4 mb - 0.00 in0.0 mm 0.00 in0.0 mm
09:30 AM 73.1°F22.8°C 66.2°F19.0°C 79% 0.3 mph WSW0.5 kmh WSW 2.0 mph3.2 kmh 29.56 in1001.0 mb - 0.00 in0.0 mm 0.00 in0.0 mm
09:15 AM 72.1°F22.3°C 66.3°F19.1°C 82% 0.7 mph WSW1.1 kmh WSW 3.0 mph4.8 kmh 29.56 in1001.0 mb - 0.00 in0.0 mm 0.00 in0.0 mm
09:02 AM 71.6°F22.0°C 66.5°F19.2°C 84% 0.2 mph S0.3 kmh S 1.0 mph1.6 kmh 29.55 in1000.7 mb - 0.00 in0.0 mm 0.00 in0.0 mm
08:48 AM 70.2°F21.2°C 65.4°F18.6°C 85% Calm Calm 1.0 mph1.6 kmh 29.55 in1000.7 mb - 0.00 in0.0 mm 0.00 in0.0 mm
08:30 AM 69.3°F20.7°C 65.6°F18.7°C 88% 0.2 mph S0.3 kmh S 4.0 mph6.4 kmh 29.55 in1000.7 mb - 0.00 in0.0 mm 0.00 in0.0 mm
08:15 AM 70.1°F21.2°C 66.0°F18.9°C 87% Calm Calm -- 29.55 in1000.7 mb - 0.00 in0.0 mm 0.00 in0.0 mm
08:00 AM 68.6°F20.3°C 64.6°F18.1°C 87% 0.4 mph SSW0.6 kmh SSW -- 29.54 in1000.3 mb - 0.00 in0.0 mm 0.00 in0.0 mm
07:45 AM 68.4°F20.2°C 65.0°F18.3°C 89% Calm Calm -- 29.54 in1000.3 mb - 0.00 in0.0 mm 0.00 in0.0 mm
07:30 AM 67.4°F19.7°C 64.4°F18.0°C 90% Calm Calm -- 29.54 in1000.3 mb - 0.00 in0.0 mm 0.00 in0.0 mm
07:15 AM 66.6°F19.2°C 63.9°F17.7°C 91% Calm Calm -- 29.53 in1000.0 mb - 0.00 in0.0 mm 0.00 in0.0 mm
07:01 AM 65.2°F18.4°C 62.8°F17.1°C 92% Calm Calm -- 29.53 in1000.0 mb - 0.00 in0.0 mm 0.00 in0.0 mm
06:45 AM 64.5°F18.1°C 62.1°F16.7°C 92% Calm Calm -- 29.53 in1000.0 mb - 0.00 in0.0 mm 0.00 in0.0 mm
06:31 AM 64.4°F18.0°C 62.0°F16.7°C 92% Calm Calm -- 29.52 in999.7 mb - 0.00 in0.0 mm 0.00 in0.0 mm
06:15 AM 63.8°F17.7°C 61.4°F16.3°C 92% Calm Calm -- 29.52 in999.7 mb - 0.00 in0.0 mm 0.00 in0.0 mm
06:00 AM 62.7°F17.1°C 60.4°F15.8°C 92% Calm Calm -- 29.52 in999.7 mb - 0.00 in0.0 mm 0.00 in0.0 mm
05:46 AM 62.7°F17.1°C 60.3°F15.7°C 92% Calm Calm -- 29.51 in999.3 mb - 0.00 in0.0 mm 0.00 in0.0 mm
05:30 AM 61.6°F16.4°C 59.3°F15.2°C 92% Calm Calm 1.0 mph1.6 kmh 29.51 in999.3 mb - 0.00 in0.0 mm 0.00 in0.0 mm
05:15 AM 61.2°F16.2°C 58.8°F14.9°C 92% Calm Calm -- 29.52 in999.7 mb - 0.00 in0.0 mm 0.00 in0.0 mm
05:00 AM 60.7°F15.9°C 58.4°F14.7°C 92% Calm Calm -- 29.50 in999.0 mb - 0.00 in0.0 mm 0.00 in0.0 mm
04:45 AM 60.9°F16.1°C 58.6°F14.8°C 92% Calm Calm -- 29.50 in999.0 mb - 0.00 in0.0 mm 0.00 in0.0 mm
04:30 AM 61.1°F16.2°C 58.8°F14.9°C 92% Calm Calm -- 29.50 in999.0 mb - 0.00 in0.0 mm 0.00 in0.0 mm
04:15 AM 61.3°F16.3°C 59.0°F15.0°C 92% Calm Calm -- 29.49 in998.6 mb - 0.00 in0.0 mm 0.00 in0.0 mm
04:00 AM 61.6°F16.4°C 59.3°F15.2°C 92% Calm Calm -- 29.49 in998.6 mb - 0.00 in0.0 mm 0.00 in0.0 mm
03:48 AM 61.7°F16.5°C 59.4°F15.2°C 92% Calm Calm -- 29.49 in998.6 mb - 0.00 in0.0 mm 0.00 in0.0 mm
03:30 AM 61.8°F16.6°C 59.5°F15.3°C 92% Calm Calm -- 29.49 in998.6 mb - 0.00 in0.0 mm 0.00 in0.0 mm
03:15 AM 61.7°F16.5°C 59.4°F15.2°C 92% Calm Calm -- 29.49 in998.6 mb - 0.00 in0.0 mm 0.00 in0.0 mm
03:00 AM 61.5°F16.4°C 59.2°F15.1°C 92% Calm Calm -- 29.50 in999.0 mb - 0.00 in0.0 mm 0.00 in0.0 mm
02:45 AM 61.7°F16.5°C 59.3°F15.2°C 92% Calm Calm -- 29.49 in998.6 mb - 0.00 in0.0 mm 0.00 in0.0 mm
02:30 AM 61.7°F16.5°C 59.4°F15.2°C 92% 0.3 mph WNW0.5 kmh WNW 3.0 mph4.8 kmh 29.49 in998.6 mb - 0.00 in0.0 mm 0.00 in0.0 mm
02:15 AM 61.5°F16.4°C 59.2°F15.1°C 92% 0.3 mph WNW0.5 kmh WNW -- 29.50 in999.0 mb - 0.00 in0.0 mm 0.00 in0.0 mm
02:00 AM 61.3°F16.3°C 59.0°F15.0°C 92% Calm Calm -- 29.49 in998.6 mb - 0.00 in0.0 mm 0.00 in0.0 mm
01:45 AM 61.4°F16.3°C 59.1°F15.1°C 92% 0.1 mph NW0.2 kmh NW 2.0 mph3.2 kmh 29.49 in998.6 mb - 0.00 in0.0 mm 0.00 in0.0 mm
01:30 AM 61.5°F16.4°C 59.2°F15.1°C 92% Calm Calm -- 29.49 in998.6 mb - 0.00 in0.0 mm 0.00 in0.0 mm
01:15 AM 61.7°F16.5°C 59.4°F15.2°C 92% Calm Calm -- 29.49 in998.6 mb - 0.00 in0.0 mm 0.00 in0.0 mm
01:00 AM 61.9°F16.6°C 59.5°F15.3°C 92% Calm Calm -- 29.50 in999.0 mb - 0.00 in0.0 mm 0.00 in0.0 mm
12:46 AM 61.9°F16.6°C 59.5°F15.3°C 92% Calm Calm -- 29.51 in999.3 mb - 0.00 in0.0 mm 0.00 in0.0 mm
12:31 AM 62.1°F16.7°C 59.7°F15.4°C 92% Calm Calm -- 29.52 in999.7 mb - 0.00 in0.0 mm 0.00 in0.0 mm
12:15 AM 62.3°F16.8°C 59.9°F15.5°C 92% Calm Calm -- 29.52 in999.7 mb - 0.00 in0.0 mm 0.00 in0.0 mm
12:00 AM 61.9°F16.6°C 59.6°F15.3°C 92% Calm Calm -- 29.53 in1000.0 mb - 0.00 in0.0 mm 0.00 in0.0 mm